Terminal Aerodrome Forecast
Issued by NWS

Home | Current Version | Previous Version | Text Only | Print | Product List | Glossary On
Versions: 1 2 3 4 5 6 7 8 9 10 11 12 13 14 15 16 17 18 19 20 21 22 23 24
000
FTUS41 KOKX 131400 AAB
TAFSWF
TAF AMD
KSWF 131432Z 1315/1418 21010G18KT 5SM BR OVC015
     FM131700 22013G21KT P6SM SCT020 BKN050 BKN150
     FM132200 22010KT P6SM VCTS BKN050CB BKN100
     FM140300 22007KT 5SM BR BKN040 BKN080
     FM140600 20004KT 3SM BR SCT010 BKN025 BKN060
     FM141600 22007KT 6SM HZ SCT025 BKN050
      AMD NOT SKED=

USA.gov is the U.S. government's official web portal to all federal, state and local government web resources and services.